logo
Rechercher aéroport 
image banner adimage banner adimage banner ad
image banner ad

VCCJ - Jaffna Intl Airport

Situé à Jaffna, Sri Lanka

ICAO - VCCJ, IATA - JAF

Données fournies par Airmate  

Information générale

Coordonnées: N9°47'32" E80°4'12"
Élévation : 33 feet MSL.
 
Voir autres Aéroports à Northern Province

Données opérationnelles

Special qualification required
Heure actuelle UTC:
Heure actuelle locale:
Météo à : - ( 0 km )
METAR: ZMUB 251800Z VRB02MPS CAVOK 02/M01 Q1018 NOSIG RMK QFE656.2 82
Voir NOTAMs / SUP AIP / TFR affectant cet aéroport [VIEW]
Fréquences de communication: [VIEW]

Pistes:

Identifiant RWYQFULongueur (ft)Largeur (ft)SurfaceLDA (ft)
0546°459398ASP
23226°459398ASP

Coordonnées de l'aéroport

Adresse: Jaffna Sri Lanka

Vue satellite de VCCJ